EDT,Max TemperatureF,Mean TemperatureF,Min TemperatureF,Max Dew PointF,MeanDew PointF,Min DewpointF,Max Humidity, Mean Humidity, Min Humidity, Max Sea Level PressureIn, Mean Sea Level PressureIn, Min Sea Level PressureIn, Max VisibilityMiles, Mean VisibilityMiles, Min VisibilityMiles, Max Wind SpeedMPH, Mean Wind SpeedMPH, Max Gust SpeedMPH,PrecipitationIn, CloudCover, Events, WindDirDegrees
2013-10-1,71,60,48,55,50,45,100,76,50,29.96,29.88,29.81,10,10,7,9,3,,0.00,2,,2
2013-10-2,71,58,48,57,51,46,100,91,60,29.84,29.83,29.81,10,10,10,9,5,,0.00,0,,266
2013-10-3,,,,,,,,,,,,,,,,,,,,,,
2013-10-4,69,56,44,54,48,43,100,73,40,30.09,30.06,30.02,10,10,10,8,4,,0.00,1,,256
2013-10-5,57,50,44,48,45,43,100,73,59,30.16,30.12,30.09,10,10,10,9,5,,0.00,5,,67
2013-10-6,55,48,42,48,41,36,100,69,51,30.30,30.25,30.16,10,10,4,14,7,21,0.04,3,,83
2013-10-7,62,56,51,63,57,45,100,95,76,30.24,30.03,29.82,10,6,0,20,12,31,0.66,8,,142
2013-10-8,62,50,37,63,43,34,100,70,39,30.40,30.12,29.82,10,10,1,16,8,24,0.01,1,,276
2013-10-9,57,45,33,43,38,32,100,75,47,30.49,30.43,30.38,10,10,10,9,3,,0.00,0,,182
2013-10-10,59,46,33,50,42,30,100,86,59,30.37,30.30,30.20,10,10,1,10,3,,0.00,0,,222
2013-10-11,64,53,42,52,47,39,100,83,49,30.20,30.16,30.13,10,10,1,9,2,,0.00,0,,28
2013-10-12,57,50,41,52,47,39,100,85,67,30.43,30.36,30.20,10,10,10,16,8,23,0.00,3,,69
2013-10-13,55,46,37,46,42,36,100,82,58,30.48,30.44,30.40,10,10,10,10,3,,0.00,3,,108
2013-10-14,57,45,33,50,43,32,100,83,63,30.40,30.33,30.26,10,10,7,12,3,17,0.00,2,,217
2013-10-15,62,55,48,54,51,48,100,85,63,30.29,30.25,30.23,10,10,10,10,3,,0.00,4,,112
2013-10-16,55,53,51,55,53,50,100,96,88,30.23,30.09,29.90,10,8,2,13,4,16,0.00,8,,66
2013-10-17,62,56,51,57,54,50,100,97,82,29.91,29.81,29.74,10,6,0,10,5,,0.00,7,,199
2013-10-18,66,56,46,59,51,45,100,85,46,29.82,29.68,29.59,10,6,0,22,7,30,0.26,5,,252
2013-10-19,60,50,41,52,44,36,93,74,45,29.93,29.87,29.78,10,10,10,13,7,20,0.00,1,,225
2013-10-20,60,51,42,54,41,28,100,66,29,29.94,29.76,29.67,10,10,10,22,8,28,0.00,3,,246
2013-10-21,57,44,32,48,39,30,100,75,41,30.07,30.02,29.95,10,10,10,16,5,22,0.00,0,,237
2013-10-22,59,54,46,55,51,39,100,87,76,29.99,29.83,29.69,10,10,10,13,7,20,0.00,4,,204
2013-10-23,50,40,30,41,35,28,100,77,43,29.77,29.69,29.58,10,9,1,10,2,,0.00,1,,218
2013-10-24,50,41,32,37,30,23,93,63,37,29.80,29.68,29.58,10,10,1,16,6,23,0.00,4,,266
2013-10-25,48,42,33,34,29,27,81,62,43,30.07,29.94,29.80,10,10,10,16,10,22,0.00,2,,269
2013-10-26,51,38,26,37,31,21,100,69,46,30.12,30.01,29.87,10,10,10,17,7,30,0.00,3,,242
2013-10-27,53,46,39,43,36,28,93,71,47,29.99,29.85,29.77,10,10,10,15,9,20,0.06,5,,249
2013-10-28,53,40,28,37,30,21,93,66,43,30.33,30.11,30.00,10,10,9,21,7,29,0.00,2,,267
2013-10-29,46,35,24,27,22,18,93,63,32,30.45,30.40,30.34,10,10,10,10,4,,0.00,0,,289
2013-10-30,46,36,26,30,25,21,100,70,37,30.35,30.25,30.17,10,10,10,14,4,18,0.00,1,,266
2013-10-31,57,40,24,55,40,21,100,91,71,30.26,30.11,29.81,10,9,4,15,5,28,0.37,5,,189